Chitose — JD2925 — position and weather

sailwx.info

Track history (hours):
 
Tides and Currents Weather Stations Pressure Air Temp Water Temp Dewpoint Dewpoint Depression Visibility Wind Speed Wind Dir Waves Ship Positions

Chitose

Last reported at 2014-Nov-26 05:33 UTC. Time now 2014-Nov-26 06:18 UTC.
Position N 35°28' E 139°40'.

Length 33 m; draft 3.8 m.

Type: Tug. MMSI: 431000953.

Date/timePositionNaut miles runAvg speedWind from/ knotsBaromVisibWave heightAir tempDewpointWater temp
2014-Nov-26 05:33N 35°28' E 139°40'0 0.4
2014-Nov-26 04:33N 35°27' E 139°41'4 4.0
2014-Nov-26 03:33N 35°24' E 139°38'0 0.0
2014-Nov-26 02:33N 35°24' E 139°38'3 3.3
2014-Nov-26 01:33N 35°22' E 139°42'5 5.1
2014-Nov-26 00:34N 35°27' E 139°40'2 1.5
2014-Nov-25 23:33N 35°28' E 139°41'3 2.7
2014-Nov-25 22:34N 35°27' E 139°44'3 3.3
2014-Nov-25 21:34N 35°27' E 139°40'0 0.0
2014-Nov-25 08:33N 35°27' E 139°40'0 0.0
2014-Nov-25 07:33N 35°27' E 139°40'0 0.3
2014-Nov-25 06:33N 35°27' E 139°40'1 0.7
2014-Nov-25 05:33N 35°28' E 139°40'2 1.5
2014-Nov-25 04:33N 35°26' E 139°41'1 1.3
2014-Nov-25 03:33N 35°27' E 139°42'1 1.4
2014-Nov-25 02:34N 35°27' E 139°40'1 0.8
2014-Nov-25 01:33N 35°27' E 139°39'0 0.1
2014-Nov-25 00:33N 35°27' E 139°39'7 6.6
2014-Nov-24 23:33N 35°31' E 139°46'5 4.7
2014-Nov-24 22:33N 35°27' E 139°43'3 2.6
2014-Nov-24 21:33N 35°27' E 139°40'2 0.0
2014-Nov-22 22:33N 35°28' E 139°41'2 1.8
2014-Nov-22 21:33N 35°27' E 139°43'0 0.4
2014-Nov-22 20:33N 35°27' E 139°42'2 1.7
2014-Nov-22 19:33N 35°27' E 139°40'1 0.8
2014-Nov-22 18:33N 35°28' E 139°40'0 0.0
2014-Nov-22 17:33N 35°28' E 139°40'0 0.0
2014-Nov-22 16:33N 35°28' E 139°40'0 0.0
2014-Nov-22 15:33N 35°28' E 139°40'0 0.0
2014-Nov-22 14:33N 35°28' E 139°40'2 2.3
2014-Nov-22 13:34N 35°25' E 139°41'1 0.7
2014-Nov-22 12:33N 35°25' E 139°41'0 0.0
2014-Nov-22 11:33N 35°25' E 139°41'0 0.0
2014-Nov-22 10:33N 35°25' E 139°41'2 2.4
2014-Nov-22 09:34N 35°28' E 139°42'1 0.7
2014-Nov-22 08:33N 35°28' E 139°41'1 0.6
2014-Nov-22 07:33N 35°28' E 139°42'1 1.2
2014-Nov-22 06:33N 35°28' E 139°41'2 1.5
2014-Nov-22 05:33N 35°27' E 139°42'0 0.0
2014-Nov-22 04:33N 35°27' E 139°42'0 0.5
2014-Nov-22 03:33N 35°27' E 139°43'1 1.2
2014-Nov-22 02:33N 35°28' E 139°41'1 0.8
2014-Nov-22 01:33N 35°28' E 139°40'0 0.0
2014-Nov-22 00:33N 35°28' E 139°40'0 0.0
2014-Nov-21 23:33N 35°28' E 139°40'0 0.0
2014-Nov-21 22:33N 35°28' E 139°40'1 1.3
2014-Nov-21 21:33N 35°27' E 139°42'2 1.6
2014-Nov-21 20:33N 35°27' E 139°40'4 0.3
2014-Nov-21 07:33N 35°28' E 139°44'1 0.8
2014-Nov-21 06:11N 35°29' E 139°44'2 3.6
2014-Nov-21 05:33N 35°27' E 139°42'2 2.4
2014-Nov-21 04:34N 35°27' E 139°40'0 0.0
2014-Nov-21 03:34N 35°27' E 139°40'0 0.0
2014-Nov-21 02:33N 35°27' E 139°40'0 0.0
2014-Nov-21 01:33N 35°27' E 139°40'0 0.0
2014-Nov-21 00:34N 35°27' E 139°40'1 0.8
2014-Nov-20 23:33N 35°27' E 139°41'3 2.9
2014-Nov-20 22:33N 35°26' E 139°43'1 0.9
2014-Nov-20 21:34N 35°26' E 139°43'2 2.3
2014-Nov-20 20:34N 35°28' E 139°42'2 2.2
2014-Nov-20 19:34N 35°27' E 139°40'4 0.2
2014-Nov-20 04:34N 35°24' E 139°42'3 2.8
2014-Nov-20 03:33N 35°24' E 139°38'2 2.3
2014-Nov-20 02:33N 35°23' E 139°41'0 0.3
2014-Nov-20 01:33N 35°23' E 139°41'5 5.5
2014-Nov-20 00:33N 35°28' E 139°39'2 0.1
2014-Nov-19 07:09N 35°27' E 139°40'0 0.0
2014-Nov-19 06:33N 35°27' E 139°40'0 0.0
2014-Nov-19 05:33N 35°27' E 139°40'1 0.9
2014-Nov-19 04:33N 35°28' E 139°40'6 5.9
2014-Nov-19 03:33N 35°31' E 139°46'0 0.1
2014-Nov-19 02:33N 35°31' E 139°46'4 3.9
2014-Nov-19 01:33N 35°28' E 139°47'2 1.8
2014-Nov-19 00:33N 35°29' E 139°46'0 0.0
2014-Nov-18 23:23N 35°29' E 139°46'2 2.0
2014-Nov-18 22:33N 35°30' E 139°48'1 1.3
2014-Nov-18 21:33N 35°31' E 139°46'6 6.5
2014-Nov-18 20:34N 35°27' E 139°40'4 0.4
2014-Nov-18 09:17N 35°28' E 139°45'2 2.9
2014-Nov-18 08:33N 35°30' E 139°46'2 2.2
2014-Nov-18 07:33N 35°29' E 139°43'1 1.3
2014-Nov-18 06:33N 35°29' E 139°42'2 1.7
2014-Nov-18 05:33N 35°28' E 139°40'0 0.0
2014-Nov-18 04:33N 35°28' E 139°40'0 0.0
2014-Nov-18 03:33N 35°28' E 139°40'0 0.0
2014-Nov-18 02:33N 35°28' E 139°40'0 0.0
2014-Nov-18 01:33N 35°28' E 139°40'2 1.6
2014-Nov-18 00:33N 35°28' E 139°42'2 2.5
2014-Nov-17 23:33N 35°27' E 139°40'4 0.1
2014-Nov-16 23:33N 35°28' E 139°44'4 3.5
2014-Nov-16 22:33N 35°30' E 139°47'2 2.1
2014-Nov-16 21:34N 35°28' E 139°45'0 0.0
2014-Nov-16 20:33N 35°28' E 139°45'4 4.4
2014-Nov-16 19:34N 35°27' E 139°40'1 0.7
2014-Nov-16 18:34N 35°28' E 139°40'0 0.0
2014-Nov-16 17:34N 35°28' E 139°40'0 0.0
2014-Nov-16 16:33N 35°28' E 139°40'0 0.0
2014-Nov-16 15:33N 35°28' E 139°40'0 0.0
2014-Nov-16 14:33N 35°28' E 139°40'0 0.0
2014-Nov-16 13:34N 35°28' E 139°40'0 0.0
2014-Nov-16 12:33N 35°28' E 139°40'0 0.0
2014-Nov-16 11:33N 35°28' E 139°40'0 0.0
2014-Nov-16 10:33N 35°28' E 139°40'2 1.7
2014-Nov-16 09:34N 35°26' E 139°42'1 0.7
2014-Nov-16 08:34N 35°27' E 139°43'2 1.7
2014-Nov-16 07:33N 35°27' E 139°41'1 0.7
2014-Nov-16 06:33N 35°27' E 139°40'0 0.0
2014-Nov-16 05:34N 35°27' E 139°40'  
Track history (hours):
 
Tides and Currents Weather Stations Pressure Air Temp Water Temp Dewpoint Dewpoint Depression Visibility Wind Speed Wind Dir Waves Ship Positions

Chitose

Last reported at 2014-Nov-26 05:33 UTC. Time now 2014-Nov-26 06:18 UTC.
Position N 35°28' E 139°40'.

Length 33 m; draft 3.8 m.

Type: Tug. MMSI: 431000953.

Date/timePositionNaut miles runAvg speedWind from/ knotsBaromVisibWave heightAir tempDewpointWater temp
2014-Nov-26 05:33N 35°28' E 139°40'0 0.4
2014-Nov-26 04:33N 35°27' E 139°41'4 4.0
2014-Nov-26 03:33N 35°24' E 139°38'0 0.0
2014-Nov-26 02:33N 35°24' E 139°38'3 3.3
2014-Nov-26 01:33N 35°22' E 139°42'5 5.1
2014-Nov-26 00:34N 35°27' E 139°40'2 1.5
2014-Nov-25 23:33N 35°28' E 139°41'3 2.7
2014-Nov-25 22:34N 35°27' E 139°44'3 3.3
2014-Nov-25 21:34N 35°27' E 139°40'0 0.0
2014-Nov-25 08:33N 35°27' E 139°40'0 0.0
2014-Nov-25 07:33N 35°27' E 139°40'0 0.3
2014-Nov-25 06:33N 35°27' E 139°40'1 0.7
2014-Nov-25 05:33N 35°28' E 139°40'2 1.5
2014-Nov-25 04:33N 35°26' E 139°41'1 1.3
2014-Nov-25 03:33N 35°27' E 139°42'1 1.4
2014-Nov-25 02:34N 35°27' E 139°40'1 0.8
2014-Nov-25 01:33N 35°27' E 139°39'0 0.1
2014-Nov-25 00:33N 35°27' E 139°39'7 6.6
2014-Nov-24 23:33N 35°31' E 139°46'5 4.7
2014-Nov-24 22:33N 35°27' E 139°43'3 2.6
2014-Nov-24 21:33N 35°27' E 139°40'2 0.0
2014-Nov-22 22:33N 35°28' E 139°41'2 1.8
2014-Nov-22 21:33N 35°27' E 139°43'0 0.4
2014-Nov-22 20:33N 35°27' E 139°42'2 1.7
2014-Nov-22 19:33N 35°27' E 139°40'1 0.8
2014-Nov-22 18:33N 35°28' E 139°40'0 0.0
2014-Nov-22 17:33N 35°28' E 139°40'0 0.0
2014-Nov-22 16:33N 35°28' E 139°40'0 0.0
2014-Nov-22 15:33N 35°28' E 139°40'0 0.0
2014-Nov-22 14:33N 35°28' E 139°40'2 2.3
2014-Nov-22 13:34N 35°25' E 139°41'1 0.7
2014-Nov-22 12:33N 35°25' E 139°41'0 0.0
2014-Nov-22 11:33N 35°25' E 139°41'0 0.0
2014-Nov-22 10:33N 35°25' E 139°41'2 2.4
2014-Nov-22 09:34N 35°28' E 139°42'1 0.7
2014-Nov-22 08:33N 35°28' E 139°41'1 0.6
2014-Nov-22 07:33N 35°28' E 139°42'1 1.2
2014-Nov-22 06:33N 35°28' E 139°41'2 1.5
2014-Nov-22 05:33N 35°27' E 139°42'0 0.0
2014-Nov-22 04:33N 35°27' E 139°42'0 0.5
2014-Nov-22 03:33N 35°27' E 139°43'1 1.2
2014-Nov-22 02:33N 35°28' E 139°41'1 0.8
2014-Nov-22 01:33N 35°28' E 139°40'0 0.0
2014-Nov-22 00:33N 35°28' E 139°40'0 0.0
2014-Nov-21 23:33N 35°28' E 139°40'0 0.0
2014-Nov-21 22:33N 35°28' E 139°40'1 1.3
2014-Nov-21 21:33N 35°27' E 139°42'2 1.6
2014-Nov-21 20:33N 35°27' E 139°40'4 0.3
2014-Nov-21 07:33N 35°28' E 139°44'1 0.8
2014-Nov-21 06:11N 35°29' E 139°44'2 3.6
2014-Nov-21 05:33N 35°27' E 139°42'2 2.4
2014-Nov-21 04:34N 35°27' E 139°40'0 0.0
2014-Nov-21 03:34N 35°27' E 139°40'0 0.0
2014-Nov-21 02:33N 35°27' E 139°40'0 0.0
2014-Nov-21 01:33N 35°27' E 139°40'0 0.0
2014-Nov-21 00:34N 35°27' E 139°40'1 0.8
2014-Nov-20 23:33N 35°27' E 139°41'3 2.9
2014-Nov-20 22:33N 35°26' E 139°43'1 0.9
2014-Nov-20 21:34N 35°26' E 139°43'2 2.3
2014-Nov-20 20:34N 35°28' E 139°42'2 2.2
2014-Nov-20 19:34N 35°27' E 139°40'4 0.2
2014-Nov-20 04:34N 35°24' E 139°42'3 2.8
2014-Nov-20 03:33N 35°24' E 139°38'2 2.3
2014-Nov-20 02:33N 35°23' E 139°41'0 0.3
2014-Nov-20 01:33N 35°23' E 139°41'5 5.5
2014-Nov-20 00:33N 35°28' E 139°39'2 0.1
2014-Nov-19 07:09N 35°27' E 139°40'0 0.0
2014-Nov-19 06:33N 35°27' E 139°40'0 0.0
2014-Nov-19 05:33N 35°27' E 139°40'1 0.9
2014-Nov-19 04:33N 35°28' E 139°40'6 5.9
2014-Nov-19 03:33N 35°31' E 139°46'0 0.1
2014-Nov-19 02:33N 35°31' E 139°46'4 3.9
2014-Nov-19 01:33N 35°28' E 139°47'2 1.8
2014-Nov-19 00:33N 35°29' E 139°46'0 0.0
2014-Nov-18 23:23N 35°29' E 139°46'2 2.0
2014-Nov-18 22:33N 35°30' E 139°48'1 1.3
2014-Nov-18 21:33N 35°31' E 139°46'6 6.5
2014-Nov-18 20:34N 35°27' E 139°40'4 0.4
2014-Nov-18 09:17N 35°28' E 139°45'2 2.9
2014-Nov-18 08:33N 35°30' E 139°46'2 2.2
2014-Nov-18 07:33N 35°29' E 139°43'1 1.3
2014-Nov-18 06:33N 35°29' E 139°42'2 1.7
2014-Nov-18 05:33N 35°28' E 139°40'0 0.0
2014-Nov-18 04:33N 35°28' E 139°40'0 0.0
2014-Nov-18 03:33N 35°28' E 139°40'0 0.0
2014-Nov-18 02:33N 35°28' E 139°40'0 0.0
2014-Nov-18 01:33N 35°28' E 139°40'2 1.6
2014-Nov-18 00:33N 35°28' E 139°42'2 2.5
2014-Nov-17 23:33N 35°27' E 139°40'4 0.1
2014-Nov-16 23:33N 35°28' E 139°44'4 3.5
2014-Nov-16 22:33N 35°30' E 139°47'2 2.1
2014-Nov-16 21:34N 35°28' E 139°45'0 0.0
2014-Nov-16 20:33N 35°28' E 139°45'4 4.4
2014-Nov-16 19:34N 35°27' E 139°40'1 0.7
2014-Nov-16 18:34N 35°28' E 139°40'0 0.0
2014-Nov-16 17:34N 35°28' E 139°40'0 0.0
2014-Nov-16 16:33N 35°28' E 139°40'0 0.0
2014-Nov-16 15:33N 35°28' E 139°40'0 0.0
2014-Nov-16 14:33N 35°28' E 139°40'0 0.0
2014-Nov-16 13:34N 35°28' E 139°40'0 0.0
2014-Nov-16 12:33N 35°28' E 139°40'0 0.0
2014-Nov-16 11:33N 35°28' E 139°40'0 0.0
2014-Nov-16 10:33N 35°28' E 139°40'2 1.7
2014-Nov-16 09:34N 35°26' E 139°42'1 0.7
2014-Nov-16 08:34N 35°27' E 139°43'2 1.7
2014-Nov-16 07:33N 35°27' E 139°41'1 0.7
2014-Nov-16 06:33N 35°27' E 139°40'0 0.0
2014-Nov-16 05:34N 35°27' E 139°40'  

Dump ship's entire track history